createdAt,value
2018-12-31T00:01:10.745Z,18.98
2018-12-31T00:04:15.639Z,17.98
2018-12-31T00:05:32.056Z,18.73
2018-12-31T00:06:50.193Z,18.15
2018-12-31T00:08:06.911Z,18.42
2018-12-31T00:09:23.424Z,18.17
2018-12-31T00:10:39.837Z,19.00
2018-12-31T00:11:56.225Z,18.50
2018-12-31T00:13:12.575Z,17.15
2018-12-31T00:14:31.439Z,17.35
2018-12-31T00:15:51.116Z,17.60
2018-12-31T00:18:28.539Z,18.40
2018-12-31T00:19:44.748Z,18.10
2018-12-31T00:21:00.949Z,17.45
2018-12-31T00:22:17.313Z,18.65
2018-12-31T00:23:33.370Z,16.75
2018-12-31T00:24:50.784Z,17.32
2018-12-31T00:26:11.708Z,18.40
2018-12-31T00:27:26.970Z,17.15
2018-12-31T00:30:44.583Z,18.00
2018-12-31T00:32:03.830Z,17.10
2018-12-31T00:33:20.202Z,16.27
2018-12-31T00:34:36.325Z,15.38
2018-12-31T00:35:52.768Z,17.55
2018-12-31T00:37:09.015Z,16.73
2018-12-31T00:38:25.737Z,17.05
2018-12-31T00:39:42.279Z,17.45
2018-12-31T00:40:59.579Z,17.17
2018-12-31T00:42:16.513Z,16.75
2018-12-31T00:43:32.947Z,15.95
2018-12-31T00:44:49.994Z,16.93
2018-12-31T00:46:06.975Z,17.87
2018-12-31T00:47:23.331Z,18.15
2018-12-31T00:48:39.549Z,18.42
2018-12-31T00:49:55.804Z,17.32
2018-12-31T00:51:12.753Z,17.50
2018-12-31T00:52:28.980Z,16.70
2018-12-31T00:53:45.554Z,17.60
2018-12-31T00:55:02.124Z,17.62
2018-12-31T00:56:18.289Z,15.30
2018-12-31T00:57:34.598Z,18.05
2018-12-31T00:58:51.040Z,16.95
2018-12-31T01:00:08.003Z,17.85
2018-12-31T01:01:23.192Z,18.35
2018-12-31T01:03:06.015Z,17.42
2018-12-31T01:04:22.803Z,17.23
2018-12-31T01:05:39.826Z,18.80
2018-12-31T01:06:56.030Z,18.17
2018-12-31T01:08:12.726Z,16.50
2018-12-31T01:09:29.768Z,17.00
2018-12-31T01:10:46.420Z,15.95
2018-12-31T01:12:03.390Z,16.57
2018-12-31T01:13:19.606Z,16.07
2018-12-31T01:14:38.236Z,17.17
2018-12-31T01:15:55.239Z,16.23
2018-12-31T01:17:12.320Z,17.05
2018-12-31T01:18:29.404Z,16.05
2018-12-31T01:19:46.372Z,15.05
2018-12-31T01:21:02.743Z,14.30
2018-12-31T01:22:19.043Z,16.27
2018-12-31T01:23:35.496Z,14.13
2018-12-31T01:24:54.098Z,15.23
2018-12-31T01:26:11.137Z,13.80
2018-12-31T01:28:42.216Z,15.43
2018-12-31T01:29:59.152Z,15.20
2018-12-31T01:32:40.474Z,15.00
2018-12-31T01:33:55.365Z,16.35
2018-12-31T01:35:12.053Z,14.40
2018-12-31T01:36:28.673Z,14.23
2018-12-31T01:37:45.671Z,13.75
2018-12-31T01:39:02.370Z,14.07
2018-12-31T01:40:19.307Z,14.28
2018-12-31T01:41:36.012Z,14.70
2018-12-31T01:42:53.268Z,13.43
2018-12-31T01:44:09.676Z,14.25
2018-12-31T01:45:26.630Z,12.35
2018-12-31T01:46:42.911Z,13.43
2018-12-31T01:47:59.267Z,14.10
2018-12-31T01:49:15.415Z,12.13
2018-12-31T01:50:32.157Z,11.75
2018-12-31T01:51:49.445Z,12.33
2018-12-31T01:53:05.831Z,12.75
2018-12-31T01:54:23.113Z,11.75
2018-12-31T01:55:40.172Z,12.75
2018-12-31T01:56:56.305Z,10.35
2018-12-31T01:58:13.168Z,12.45
2018-12-31T01:59:30.184Z,10.95
2018-12-31T02:00:46.886Z,11.55
2018-12-31T02:02:05.111Z,13.13
2018-12-31T02:03:21.815Z,11.70
2018-12-31T02:04:38.070Z,12.50
2018-12-31T02:05:54.841Z,11.30
2018-12-31T02:07:11.238Z,11.90
2018-12-31T02:08:28.173Z,11.75
2018-12-31T02:09:44.312Z,11.60
2018-12-31T02:11:00.653Z,12.00
2018-12-31T02:12:16.880Z,11.33
2018-12-31T02:13:32.336Z,12.15
2018-12-31T02:16:23.012Z,10.80
2018-12-31T02:17:39.833Z,11.90
2018-12-31T02:18:56.097Z,12.07
2018-12-31T02:20:12.262Z,12.85
2018-12-31T02:21:28.501Z,13.55
2018-12-31T02:22:44.853Z,13.18
2018-12-31T02:24:01.275Z,11.83
2018-12-31T02:25:17.517Z,12.33
2018-12-31T02:26:34.449Z,12.18
2018-12-31T02:27:49.806Z,12.50
2018-12-31T02:30:50.610Z,12.00
2018-12-31T02:32:06.936Z,12.28
2018-12-31T02:33:23.392Z,11.18
2018-12-31T02:34:39.664Z,12.45
2018-12-31T02:35:58.848Z,11.45
2018-12-31T02:37:17.921Z,11.65
2018-12-31T02:38:34.648Z,12.23
2018-12-31T02:39:51.420Z,11.48
2018-12-31T02:41:07.604Z,11.88
2018-12-31T02:42:24.019Z,11.85
2018-12-31T02:43:41.118Z,12.43
2018-12-31T02:44:57.157Z,11.90
2018-12-31T02:46:13.978Z,10.95
2018-12-31T02:47:30.304Z,11.20
2018-12-31T02:48:47.817Z,11.97
2018-12-31T02:51:15.013Z,10.60
2018-12-31T02:55:17.886Z,10.50
2018-12-31T02:56:34.669Z,11.88
2018-12-31T02:57:51.120Z,10.75
2018-12-31T02:59:07.290Z,10.75
2018-12-31T03:00:24.585Z,12.03
2018-12-31T03:01:41.565Z,9.98
2018-12-31T03:02:57.755Z,12.98
2018-12-31T03:04:16.929Z,11.05
2018-12-31T03:05:34.132Z,11.60
2018-12-31T03:06:51.064Z,11.63
2018-12-31T03:08:07.944Z,11.75
2018-12-31T03:09:23.981Z,11.03
2018-12-31T03:10:40.999Z,11.75
2018-12-31T03:11:57.333Z,11.50
2018-12-31T03:13:13.376Z,11.00
2018-12-31T03:14:30.306Z,11.08
2018-12-31T03:15:46.853Z,12.18
2018-12-31T03:17:04.047Z,10.60
2018-12-31T03:18:20.426Z,11.57
2018-12-31T03:19:36.831Z,11.48
2018-12-31T03:20:53.093Z,11.33
2018-12-31T03:22:09.617Z,11.55
2018-12-31T03:23:25.860Z,10.28
2018-12-31T03:24:42.936Z,10.85
2018-12-31T03:25:59.066Z,10.98
2018-12-31T03:27:15.465Z,11.53
2018-12-31T03:28:31.798Z,11.50
2018-12-31T03:29:48.085Z,10.93
2018-12-31T03:31:06.078Z,10.05
2018-12-31T03:32:23.175Z,10.38
2018-12-31T03:33:40.270Z,10.65
2018-12-31T03:34:57.403Z,11.65
2018-12-31T03:36:15.770Z,11.00
2018-12-31T03:37:31.446Z,10.63
2018-12-31T03:40:32.355Z,10.28
2018-12-31T03:41:48.457Z,11.15
2018-12-31T03:43:05.030Z,11.88
2018-12-31T03:44:27.173Z,12.47
2018-12-31T03:45:44.143Z,12.33
2018-12-31T03:47:01.272Z,12.25
2018-12-31T03:48:18.356Z,14.55
2018-12-31T03:49:34.644Z,11.97
2018-12-31T03:50:52.065Z,11.25
2018-12-31T03:52:09.043Z,12.20
2018-12-31T03:53:25.354Z,12.63
2018-12-31T03:54:41.842Z,11.75
2018-12-31T03:55:58.977Z,11.35
2018-12-31T03:57:15.365Z,9.60
2018-12-31T03:58:31.722Z,10.93
2018-12-31T03:59:48.006Z,11.43
2018-12-31T04:01:04.626Z,10.75
2018-12-31T04:02:21.660Z,11.60
2018-12-31T04:03:38.135Z,12.45
2018-12-31T04:04:54.667Z,11.40
2018-12-31T04:06:12.859Z,12.50
2018-12-31T04:07:31.855Z,10.78
2018-12-31T04:08:48.301Z,11.08
2018-12-31T04:10:04.407Z,10.13
2018-12-31T04:11:20.625Z,11.10
2018-12-31T04:12:37.109Z,10.50
2018-12-31T04:13:53.613Z,11.45
2018-12-31T04:15:10.043Z,11.80
2018-12-31T04:16:26.414Z,12.23
2018-12-31T04:17:43.545Z,12.70
2018-12-31T04:19:03.844Z,12.33
2018-12-31T04:20:20.700Z,13.45
2018-12-31T04:21:37.580Z,11.53
2018-12-31T04:22:54.538Z,12.53
2018-12-31T04:24:11.924Z,12.60
2018-12-31T04:25:30.354Z,10.82
2018-12-31T04:26:46.901Z,12.90
2018-12-31T04:28:04.077Z,11.20
2018-12-31T04:29:21.224Z,11.22
2018-12-31T04:30:38.328Z,11.70
2018-12-31T04:31:55.418Z,12.18
2018-12-31T04:33:12.069Z,12.58
2018-12-31T04:34:29.197Z,11.83
2018-12-31T04:35:45.591Z,12.43
2018-12-31T04:37:01.991Z,11.88
2018-12-31T04:38:18.233Z,13.30
2018-12-31T04:39:35.763Z,13.45
2018-12-31T04:40:52.855Z,12.75
2018-12-31T04:42:09.838Z,12.45
2018-12-31T04:43:26.083Z,12.75
2018-12-31T04:44:42.147Z,12.70
2018-12-31T04:45:58.180Z,12.88
2018-12-31T04:47:14.671Z,12.00
2018-12-31T04:48:30.973Z,13.00
2018-12-31T04:49:48.002Z,13.10
2018-12-31T04:51:04.482Z,12.78
2018-12-31T04:53:45.443Z,13.30
2018-12-31T04:55:02.637Z,14.40
2018-12-31T04:56:18.885Z,14.80
2018-12-31T04:57:35.057Z,13.15
2018-12-31T04:58:54.508Z,12.58
2018-12-31T05:00:10.669Z,14.78
2018-12-31T05:01:27.648Z,15.48
2018-12-31T05:02:44.401Z,15.48
2018-12-31T05:04:00.605Z,13.43
2018-12-31T05:05:17.196Z,15.00
2018-12-31T05:06:33.586Z,16.97
2018-12-31T05:07:50.663Z,16.32
2018-12-31T05:10:18.761Z,14.05
2018-12-31T05:11:42.076Z,13.53
2018-12-31T05:14:12.079Z,14.33
2018-12-31T05:15:35.788Z,15.50
2018-12-31T05:18:06.534Z,16.10
2018-12-31T05:20:48.320Z,14.67
2018-12-31T05:23:20.287Z,14.38
2018-12-31T05:26:03.204Z,13.83
2018-12-31T05:27:19.476Z,12.93
2018-12-31T05:29:46.645Z,15.98
2018-12-31T05:31:09.955Z,14.90
2018-12-31T05:32:23.533Z,14.93
2018-12-31T05:33:38.833Z,15.30
2018-12-31T05:34:51.886Z,16.15
2018-12-31T05:36:34.065Z,14.95
2018-12-31T05:39:01.370Z,14.50
2018-12-31T05:40:20.094Z,16.35
2018-12-31T05:42:48.311Z,15.78
2018-12-31T05:44:02.699Z,16.30
2018-12-31T05:46:34.598Z,16.30
2018-12-31T05:49:05.615Z,16.52
2018-12-31T05:50:16.792Z,16.80
2018-12-31T05:51:26.309Z,17.27
2018-12-31T05:52:34.051Z,20.32
2018-12-31T05:55:34.739Z,16.57
2018-12-31T05:56:51.775Z,15.40
2018-12-31T05:58:07.971Z,18.27
2018-12-31T05:59:24.244Z,17.50
2018-12-31T06:00:43.976Z,16.35
2018-12-31T06:02:04.732Z,17.07
2018-12-31T06:03:22.018Z,17.35
2018-12-31T06:04:38.438Z,18.52
2018-12-31T06:05:57.814Z,18.48
2018-12-31T06:07:16.911Z,19.23
2018-12-31T06:08:34.338Z,18.37
2018-12-31T06:09:58.042Z,18.42
2018-12-31T06:11:08.917Z,19.20
2018-12-31T06:12:44.739Z,20.25
2018-12-31T06:14:02.963Z,20.88
2018-12-31T06:15:19.471Z,18.75
2018-12-31T06:16:35.721Z,19.50
2018-12-31T06:17:52.889Z,20.10
2018-12-31T06:19:09.275Z,19.00
2018-12-31T06:20:25.597Z,18.85
2018-12-31T06:21:41.798Z,19.37
2018-12-31T06:22:58.489Z,20.15
2018-12-31T06:24:15.440Z,19.07
2018-12-31T06:25:32.027Z,19.80
2018-12-31T06:26:47.721Z,19.73
2018-12-31T06:28:11.896Z,21.90
2018-12-31T06:29:28.042Z,19.92
2018-12-31T06:30:44.389Z,19.27
2018-12-31T06:32:00.656Z,21.82
2018-12-31T06:33:17.194Z,19.85
2018-12-31T06:34:33.308Z,22.45
2018-12-31T06:35:49.761Z,22.25
2018-12-31T06:37:06.399Z,23.40
2018-12-31T06:38:22.938Z,22.02
2018-12-31T06:39:39.255Z,19.73
2018-12-31T06:40:58.396Z,22.13
2018-12-31T06:42:15.863Z,19.85
2018-12-31T06:43:35.751Z,20.17
2018-12-31T06:44:53.273Z,21.30
2018-12-31T06:46:11.086Z,21.17
2018-12-31T06:47:33.573Z,21.15
2018-12-31T06:48:52.111Z,23.90
2018-12-31T06:50:09.009Z,22.67
2018-12-31T06:51:26.389Z,22.02
2018-12-31T06:52:42.906Z,21.75
2018-12-31T06:54:00.317Z,23.40
2018-12-31T06:55:17.542Z,21.45
2018-12-31T07:00:01.003Z,27.02
2018-12-31T07:01:18.291Z,36.70
2018-12-31T07:02:35.437Z,54.15
2018-12-31T07:03:52.074Z,59.10
2018-12-31T07:05:16.370Z,30.72
2018-12-31T07:06:40.958Z,34.08
2018-12-31T07:07:57.851Z,28.10
2018-12-31T07:10:35.743Z,24.80
2018-12-31T07:11:49.786Z,28.50
2018-12-31T07:13:06.533Z,25.57
2018-12-31T07:14:42.567Z,25.27
2018-12-31T07:16:18.688Z,24.63
2018-12-31T07:17:37.678Z,20.68
2018-12-31T07:18:54.095Z,24.02
2018-12-31T07:20:11.283Z,23.87
2018-12-31T07:21:28.285Z,22.42
2018-12-31T07:22:45.282Z,24.77
2018-12-31T07:24:02.066Z,27.10
2018-12-31T07:25:18.701Z,28.45
2018-12-31T07:26:34.953Z,25.77
2018-12-31T07:27:51.916Z,26.68
2018-12-31T07:29:08.437Z,25.30
2018-12-31T07:30:25.012Z,25.05
2018-12-31T07:31:41.248Z,24.95
2018-12-31T07:33:01.802Z,27.73
2018-12-31T07:34:19.823Z,26.25
2018-12-31T07:35:37.153Z,27.75
2018-12-31T07:36:56.857Z,26.97
2018-12-31T07:38:13.073Z,30.15
2018-12-31T07:39:30.022Z,27.67
2018-12-31T07:40:47.125Z,27.00
2018-12-31T07:42:03.490Z,31.60
2018-12-31T07:43:21.508Z,26.75
2018-12-31T07:44:39.509Z,28.60
2018-12-31T07:45:56.361Z,30.15
2018-12-31T07:47:12.622Z,29.87
2018-12-31T07:48:29.125Z,28.32
2018-12-31T07:49:46.200Z,29.55
2018-12-31T07:51:02.715Z,27.15
2018-12-31T07:52:19.224Z,29.70
2018-12-31T07:53:35.898Z,26.37
2018-12-31T07:54:52.963Z,31.52
2018-12-31T07:56:10.851Z,29.15
2018-12-31T07:57:27.828Z,26.90
2018-12-31T07:58:45.918Z,28.42
2018-12-31T08:00:05.120Z,26.77
2018-12-31T08:01:23.128Z,29.30
2018-12-31T08:02:40.657Z,30.65
2018-12-31T08:03:58.440Z,30.40
2018-12-31T08:05:16.675Z,31.42
2018-12-31T08:06:36.801Z,30.50
2018-12-31T08:07:56.963Z,31.05
2018-12-31T08:09:14.653Z,29.72
2018-12-31T08:10:31.168Z,32.15
2018-12-31T08:11:48.643Z,33.38
2018-12-31T08:13:05.626Z,28.83
2018-12-31T08:14:24.941Z,32.25
2018-12-31T08:15:42.226Z,31.95
2018-12-31T08:17:00.798Z,33.58
2018-12-31T08:18:17.861Z,35.20
2018-12-31T08:19:38.271Z,34.70
2018-12-31T08:20:57.048Z,29.12
2018-12-31T08:22:16.497Z,33.23
2018-12-31T08:23:35.015Z,30.30
2018-12-31T08:24:51.685Z,33.60
2018-12-31T08:26:08.594Z,32.58
2018-12-31T08:27:25.869Z,34.30
2018-12-31T08:28:44.998Z,35.13
2018-12-31T08:30:01.607Z,31.57
2018-12-31T08:31:22.378Z,53.50
2018-12-31T08:32:39.180Z,45.00
2018-12-31T08:33:58.012Z,65.80
2018-12-31T08:35:14.606Z,50.88
2018-12-31T08:38:16.655Z,35.50
2018-12-31T08:41:17.207Z,32.20
2018-12-31T08:43:55.665Z,32.60
2018-12-31T08:45:16.149Z,31.93
2018-12-31T08:46:35.286Z,32.55
2018-12-31T08:47:53.924Z,32.42
2018-12-31T08:49:11.378Z,32.15
2018-12-31T08:50:30.223Z,33.13
2018-12-31T08:51:49.700Z,35.10
2018-12-31T08:54:52.424Z,30.37
2018-12-31T08:56:11.997Z,30.08
2018-12-31T08:58:08.459Z,32.05
2018-12-31T08:59:41.052Z,32.65
2018-12-31T09:00:58.350Z,31.62
2018-12-31T09:02:17.824Z,30.45
2018-12-31T09:03:39.497Z,32.03
2018-12-31T09:04:59.840Z,32.90
2018-12-31T09:06:16.726Z,32.10
2018-12-31T09:07:32.903Z,32.90
2018-12-31T09:08:38.288Z,33.25
2018-12-31T09:09:43.760Z,32.38
2018-12-31T09:10:50.901Z,33.10
2018-12-31T09:12:04.226Z,31.87
2018-12-31T09:13:10.869Z,34.35
2018-12-31T09:14:19.866Z,31.65
2018-12-31T09:15:26.015Z,31.77
2018-12-31T09:16:40.361Z,34.65
2018-12-31T09:18:05.184Z,33.63
2018-12-31T09:20:58.583Z,34.85
2018-12-31T09:22:15.811Z,32.48
2018-12-31T09:23:32.356Z,34.27
2018-12-31T09:24:49.531Z,33.65
2018-12-31T09:26:09.372Z,31.30
2018-12-31T09:27:25.758Z,32.30
2018-12-31T09:29:58.194Z,32.38
2018-12-31T09:31:19.075Z,32.75
2018-12-31T09:34:19.403Z,31.73
2018-12-31T09:35:37.306Z,30.92
2018-12-31T09:36:54.975Z,34.50
2018-12-31T09:38:11.930Z,33.13
2018-12-31T09:39:30.424Z,36.38
2018-12-31T09:40:49.291Z,35.55
2018-12-31T09:43:23.356Z,32.90
2018-12-31T09:44:40.558Z,30.72
2018-12-31T09:45:58.903Z,34.08
2018-12-31T09:47:15.647Z,32.93
2018-12-31T09:48:35.378Z,30.80
2018-12-31T09:49:51.803Z,31.02
2018-12-31T09:51:08.813Z,34.78
2018-12-31T09:52:25.066Z,33.02
2018-12-31T09:53:44.042Z,31.10
2018-12-31T09:55:00.711Z,32.73
2018-12-31T09:58:20.961Z,30.80
2018-12-31T09:59:55.538Z,32.48
2018-12-31T10:01:02.761Z,32.17
2018-12-31T10:02:22.143Z,31.05
2018-12-31T10:05:00.593Z,35.28
2018-12-31T10:06:17.082Z,34.70
2018-12-31T10:07:35.137Z,32.30
2018-12-31T10:09:18.668Z,34.30
2018-12-31T10:10:23.505Z,34.03
2018-12-31T10:11:41.263Z,33.05
2018-12-31T10:12:58.353Z,33.73
2018-12-31T10:14:15.956Z,32.95
2018-12-31T10:15:37.341Z,33.28
2018-12-31T10:16:55.898Z,31.80
2018-12-31T10:18:13.168Z,35.35
2018-12-31T10:19:32.367Z,32.93
2018-12-31T10:20:48.573Z,33.48
2018-12-31T10:22:05.239Z,33.95
2018-12-31T10:23:26.699Z,32.80
2018-12-31T10:24:43.712Z,32.98
2018-12-31T10:26:00.941Z,31.17
2018-12-31T10:30:55.776Z,31.93
2018-12-31T10:32:12.022Z,32.42
2018-12-31T10:33:28.700Z,33.67
2018-12-31T10:34:48.114Z,32.67
2018-12-31T10:36:04.542Z,34.05
2018-12-31T10:37:21.268Z,32.10
2018-12-31T10:38:41.012Z,32.67
2018-12-31T10:39:57.689Z,32.15
2018-12-31T10:41:14.279Z,32.05
2018-12-31T10:42:31.568Z,31.37
2018-12-31T10:43:49.183Z,31.75
2018-12-31T10:45:05.569Z,34.33
2018-12-31T10:46:22.589Z,30.57
2018-12-31T10:47:39.667Z,34.20
2018-12-31T10:48:56.159Z,32.38
2018-12-31T10:50:13.718Z,32.15
2018-12-31T10:51:29.716Z,36.42
2018-12-31T10:52:46.798Z,35.55
2018-12-31T10:54:03.290Z,32.95
2018-12-31T10:55:22.930Z,42.88
2018-12-31T10:56:39.454Z,33.42
2018-12-31T10:57:55.829Z,32.88
2018-12-31T10:59:12.322Z,33.58
2018-12-31T11:00:28.912Z,33.28
2018-12-31T11:01:46.606Z,33.53
2018-12-31T11:03:03.641Z,31.97
2018-12-31T11:04:24.295Z,31.82
2018-12-31T11:05:40.870Z,29.70
2018-12-31T11:06:57.361Z,31.35
2018-12-31T11:08:13.077Z,30.70
2018-12-31T11:09:33.977Z,30.90
2018-12-31T11:10:52.061Z,29.18
2018-12-31T11:12:08.704Z,33.67
2018-12-31T11:13:25.491Z,32.90
2018-12-31T11:15:03.088Z,32.90
2018-12-31T11:16:09.050Z,31.15
2018-12-31T11:17:26.078Z,30.00
2018-12-31T11:18:43.362Z,33.45
2018-12-31T11:19:59.916Z,30.92
2018-12-31T11:21:16.321Z,33.92
2018-12-31T11:22:33.726Z,31.00
2018-12-31T11:23:50.916Z,31.10
2018-12-31T11:25:08.125Z,28.62
2018-12-31T11:28:02.371Z,32.28
2018-12-31T11:29:18.638Z,31.00
2018-12-31T11:30:34.872Z,32.13
2018-12-31T11:31:51.173Z,31.23
2018-12-31T11:33:08.418Z,30.00
2018-12-31T11:34:27.309Z,31.40
2018-12-31T11:35:44.865Z,32.30
2018-12-31T11:37:01.917Z,32.15
2018-12-31T11:38:46.655Z,30.90
2018-12-31T11:41:49.195Z,30.52
2018-12-31T11:43:05.763Z,29.30
2018-12-31T11:44:21.893Z,30.25
2018-12-31T11:45:38.527Z,30.15
2018-12-31T11:46:57.226Z,31.42
2018-12-31T11:48:14.489Z,30.23
2018-12-31T11:49:31.915Z,29.20
2018-12-31T11:50:56.599Z,29.07
2018-12-31T11:52:15.980Z,30.72
2018-12-31T11:53:32.879Z,29.40
2018-12-31T11:54:49.588Z,29.87
2018-12-31T11:56:06.289Z,31.95
2018-12-31T11:57:24.081Z,30.00
2018-12-31T11:58:41.068Z,29.95
2018-12-31T11:59:57.752Z,29.55
2018-12-31T12:01:17.289Z,29.90
2018-12-31T12:02:35.471Z,29.00
2018-12-31T12:03:52.552Z,30.43
2018-12-31T12:05:09.185Z,29.02
2018-12-31T12:06:25.545Z,29.72
2018-12-31T12:07:42.017Z,28.52
2018-12-31T12:08:57.355Z,29.42
2018-12-31T12:10:14.214Z,29.82
2018-12-31T12:11:32.574Z,35.85
2018-12-31T12:12:52.616Z,33.13
2018-12-31T12:14:08.816Z,32.60
2018-12-31T12:17:09.432Z,30.77
2018-12-31T12:18:26.747Z,30.35
2018-12-31T12:20:28.320Z,29.00
2018-12-31T12:21:17.061Z,28.98
2018-12-31T12:22:41.278Z,31.00
2018-12-31T12:27:29.010Z,27.22
2018-12-31T12:29:07.842Z,30.97
2018-12-31T12:30:13.886Z,28.10
2018-12-31T12:31:31.527Z,28.65
2018-12-31T12:33:07.000Z,28.98
2018-12-31T12:34:23.623Z,28.45
2018-12-31T12:35:40.377Z,29.95
2018-12-31T12:39:58.609Z,31.50
2018-12-31T12:41:15.024Z,32.55
2018-12-31T12:42:35.530Z,31.52
2018-12-31T12:43:53.150Z,31.30
2018-12-31T12:46:55.867Z,31.20
2018-12-31T12:48:12.521Z,32.20
2018-12-31T12:49:32.306Z,31.35
2018-12-31T12:50:49.044Z,31.87
2018-12-31T12:52:06.314Z,32.28
2018-12-31T12:53:23.299Z,32.10
2018-12-31T12:54:41.853Z,30.77
2018-12-31T12:55:58.865Z,30.40
2018-12-31T12:57:15.165Z,99.75
2018-12-31T12:58:33.082Z,32.98
2018-12-31T12:59:49.802Z,32.83
2018-12-31T13:01:07.221Z,29.65
2018-12-31T13:02:56.485Z,31.82
2018-12-31T13:03:58.713Z,31.82
2018-12-31T13:05:39.391Z,35.78
2018-12-31T13:06:56.041Z,31.23
2018-12-31T13:08:15.709Z,67.15
2018-12-31T13:09:34.638Z,45.17
2018-12-31T13:12:40.336Z,32.78
2018-12-31T13:16:00.828Z,30.35
2018-12-31T13:17:22.135Z,33.75
2018-12-31T13:18:31.039Z,29.80
2018-12-31T13:19:48.241Z,29.35
2018-12-31T13:21:05.844Z,30.17
2018-12-31T13:22:23.762Z,30.48
2018-12-31T13:23:54.288Z,33.20
2018-12-31T13:25:15.834Z,29.85
2018-12-31T13:28:16.640Z,32.08
2018-12-31T13:29:34.766Z,30.32
2018-12-31T13:30:51.856Z,29.92
2018-12-31T13:32:08.596Z,31.85
2018-12-31T13:33:44.836Z,32.45
2018-12-31T13:35:02.075Z,29.37
2018-12-31T13:36:19.198Z,32.85
2018-12-31T13:37:36.723Z,30.90
2018-12-31T13:38:53.292Z,33.60
2018-12-31T13:40:10.265Z,32.50
2018-12-31T13:41:27.132Z,33.20
2018-12-31T13:42:43.338Z,30.00
2018-12-31T13:44:02.197Z,29.50
2018-12-31T13:45:19.994Z,30.43
2018-12-31T13:46:37.029Z,30.02
2018-12-31T13:47:54.302Z,30.90
2018-12-31T13:49:11.682Z,30.30
2018-12-31T13:50:29.271Z,31.10
2018-12-31T13:51:49.152Z,29.52
2018-12-31T13:53:07.208Z,33.13
2018-12-31T13:54:24.225Z,29.25
2018-12-31T13:55:43.279Z,33.13
2018-12-31T13:57:01.747Z,35.17
2018-12-31T13:58:19.053Z,32.58
2018-12-31T13:59:36.199Z,33.53
2018-12-31T14:00:54.177Z,29.15
2018-12-31T14:02:11.855Z,30.08
2018-12-31T14:03:28.278Z,29.95
2018-12-31T14:04:45.385Z,30.82
2018-12-31T14:06:01.532Z,31.05
2018-12-31T14:09:00.786Z,30.05
2018-12-31T14:10:18.048Z,29.20
2018-12-31T14:13:28.831Z,34.05
2018-12-31T14:14:45.505Z,34.20
2018-12-31T14:16:05.400Z,34.85
2018-12-31T14:17:24.256Z,35.00
2018-12-31T14:18:43.059Z,31.42
2018-12-31T14:20:02.268Z,29.07
2018-12-31T14:21:18.733Z,29.75
2018-12-31T14:24:18.255Z,29.27
2018-12-31T14:25:23.788Z,29.48
2018-12-31T14:26:29.400Z,28.90
2018-12-31T14:27:39.024Z,30.35
2018-12-31T14:28:46.434Z,31.33
2018-12-31T14:29:53.638Z,31.20
2018-12-31T14:31:04.384Z,30.77
2018-12-31T14:32:10.209Z,29.27
2018-12-31T14:33:16.859Z,30.77
2018-12-31T14:34:22.774Z,30.05
2018-12-31T14:39:12.051Z,93.82
2018-12-31T14:40:28.341Z,73.52
2018-12-31T14:41:44.745Z,46.75
2018-12-31T14:43:01.264Z,35.38
2018-12-31T14:44:20.056Z,36.10
2018-12-31T14:45:37.384Z,33.00
2018-12-31T14:46:55.039Z,30.70
2018-12-31T14:48:12.414Z,33.75
2018-12-31T14:49:31.709Z,42.03
2018-12-31T14:50:48.938Z,36.55
2018-12-31T14:52:06.152Z,34.40
2018-12-31T14:53:25.550Z,42.05
2018-12-31T14:54:45.513Z,39.80
2018-12-31T14:56:02.884Z,32.95
2018-12-31T14:57:19.605Z,35.78
2018-12-31T14:58:36.898Z,39.42
2018-12-31T14:59:54.812Z,35.60
2018-12-31T15:02:45.532Z,31.90
2018-12-31T15:04:02.825Z,40.33
2018-12-31T15:05:20.336Z,45.88
2018-12-31T15:06:37.047Z,40.45
2018-12-31T15:07:54.072Z,44.50
2018-12-31T15:11:16.103Z,33.42
2018-12-31T15:12:58.292Z,33.88
2018-12-31T15:14:15.600Z,75.22
2018-12-31T15:15:32.728Z,40.70
2018-12-31T15:16:49.083Z,38.55
2018-12-31T15:18:06.196Z,34.88
2018-12-31T15:19:22.482Z,36.63
2018-12-31T15:20:39.868Z,33.50
2018-12-31T15:21:56.841Z,33.98
2018-12-31T15:23:15.084Z,34.30
2018-12-31T15:24:32.638Z,31.25
2018-12-31T15:25:50.870Z,31.68
2018-12-31T15:27:08.314Z,31.45
2018-12-31T15:28:28.833Z,31.50
2018-12-31T15:29:47.984Z,31.95
2018-12-31T15:31:04.654Z,31.48
2018-12-31T15:32:21.201Z,33.65
2018-12-31T15:33:40.402Z,31.02
2018-12-31T15:35:01.050Z,34.35
2018-12-31T15:36:18.032Z,47.17
2018-12-31T15:37:35.496Z,39.53
2018-12-31T15:38:52.716Z,35.73
2018-12-31T15:40:10.793Z,62.48
2018-12-31T15:41:50.434Z,43.87
2018-12-31T15:42:51.543Z,41.77
2018-12-31T15:44:09.541Z,38.28
2018-12-31T15:45:27.064Z,37.53
2018-12-31T15:46:48.503Z,34.53
2018-12-31T15:48:06.409Z,41.65
2018-12-31T15:49:23.724Z,39.38
2018-12-31T15:50:44.857Z,42.05
2018-12-31T15:52:03.690Z,31.87
2018-12-31T15:53:21.289Z,28.23
2018-12-31T15:54:38.868Z,30.23
2018-12-31T15:55:58.666Z,30.82
2018-12-31T15:57:18.355Z,31.48
2018-12-31T15:58:34.565Z,32.63
2018-12-31T15:59:54.140Z,32.13
2018-12-31T16:01:32.006Z,30.08
2018-12-31T16:02:50.944Z,31.00
2018-12-31T16:05:31.208Z,32.13
2018-12-31T16:06:49.925Z,32.48
2018-12-31T16:08:10.652Z,35.68
2018-12-31T16:09:27.656Z,33.30
2018-12-31T16:11:04.567Z,32.50
2018-12-31T16:12:13.615Z,32.08
2018-12-31T16:13:28.309Z,31.70
2018-12-31T16:14:44.723Z,31.60
2018-12-31T16:16:04.399Z,31.62
2018-12-31T16:17:21.282Z,31.65
2018-12-31T16:18:38.471Z,30.57
2018-12-31T16:19:56.500Z,31.55
2018-12-31T16:21:13.290Z,30.68
2018-12-31T16:22:30.103Z,32.00
2018-12-31T16:23:48.934Z,30.57
2018-12-31T16:25:05.732Z,28.10
2018-12-31T16:27:48.604Z,29.67
2018-12-31T16:29:07.138Z,33.10
2018-12-31T16:30:28.236Z,31.42
2018-12-31T16:31:45.213Z,31.52
2018-12-31T16:33:01.610Z,33.35
2018-12-31T16:34:19.893Z,32.30
2018-12-31T16:35:36.855Z,31.33
2018-12-31T16:36:54.579Z,31.33
2018-12-31T16:38:25.678Z,28.90
2018-12-31T16:39:48.882Z,31.45
2018-12-31T16:42:27.684Z,30.10
2018-12-31T16:43:45.128Z,30.55
2018-12-31T16:45:02.614Z,33.42
2018-12-31T16:46:20.696Z,31.07
2018-12-31T16:47:40.052Z,33.10
2018-12-31T16:48:57.982Z,31.52
2018-12-31T16:50:40.786Z,30.90
2018-12-31T16:51:44.836Z,33.78
2018-12-31T16:53:01.435Z,33.70
2018-12-31T16:54:18.585Z,30.77
2018-12-31T16:55:38.906Z,29.60
2018-12-31T16:58:26.712Z,31.82
2018-12-31T16:59:45.713Z,30.20
2018-12-31T17:01:04.453Z,33.80
2018-12-31T17:02:25.014Z,32.60
2018-12-31T17:03:43.189Z,33.30
2018-12-31T17:05:00.291Z,33.13
2018-12-31T17:06:17.205Z,34.85
2018-12-31T17:07:33.745Z,37.58
2018-12-31T17:08:52.888Z,35.05
2018-12-31T17:10:09.388Z,33.18
2018-12-31T17:11:26.557Z,33.67
2018-12-31T17:12:43.713Z,33.55
2018-12-31T17:14:00.244Z,35.65
2018-12-31T17:15:17.439Z,35.10
2018-12-31T17:16:33.723Z,32.90
2018-12-31T17:17:51.209Z,36.53
2018-12-31T17:19:31.689Z,39.90
2018-12-31T17:20:27.883Z,36.88
2018-12-31T17:21:34.632Z,32.50
2018-12-31T17:22:41.938Z,36.33
2018-12-31T17:23:49.194Z,35.10
2018-12-31T17:24:57.908Z,47.98
2018-12-31T17:26:15.381Z,64.20
2018-12-31T17:27:20.657Z,78.85
2018-12-31T17:29:03.820Z,49.88
2018-12-31T17:30:23.773Z,62.40
2018-12-31T17:32:54.186Z,46.80
2018-12-31T17:34:11.757Z,58.33
2018-12-31T17:35:31.429Z,54.38
2018-12-31T17:36:48.901Z,49.45
2018-12-31T17:38:05.881Z,44.55
2018-12-31T17:39:22.603Z,41.90
2018-12-31T17:40:39.976Z,39.53
2018-12-31T17:41:57.312Z,38.65
2018-12-31T17:43:13.579Z,41.30
2018-12-31T17:44:31.098Z,39.58
2018-12-31T17:45:50.623Z,39.55
2018-12-31T17:47:07.852Z,41.30
2018-12-31T17:48:27.203Z,41.25
2018-12-31T17:49:44.842Z,39.90
2018-12-31T17:51:05.272Z,40.12
2018-12-31T17:54:04.283Z,40.20
2018-12-31T17:57:06.653Z,40.80
2018-12-31T17:58:25.268Z,41.35
2018-12-31T18:00:07.057Z,44.03
2018-12-31T18:01:06.865Z,44.30
2018-12-31T18:02:24.606Z,42.80
2018-12-31T18:03:43.284Z,39.45
2018-12-31T18:06:39.319Z,46.77
2018-12-31T18:08:16.275Z,47.25
2018-12-31T18:09:23.190Z,45.38
2018-12-31T18:10:55.189Z,46.90
2018-12-31T18:12:15.181Z,49.80
2018-12-31T18:13:42.327Z,47.17
2018-12-31T18:15:06.562Z,45.88
2018-12-31T18:16:18.972Z,50.65
2018-12-31T18:19:16.587Z,43.05
2018-12-31T18:20:27.389Z,44.27
2018-12-31T18:21:39.999Z,42.50
2018-12-31T18:23:16.596Z,41.50
2018-12-31T18:24:34.269Z,40.52